createdAt,value
2023-02-19T00:01:58.410Z,96.33
2023-02-19T00:04:31.343Z,96.72
2023-02-19T00:06:58.024Z,96.89
2023-02-19T00:09:30.824Z,96.65
2023-02-19T00:11:59.001Z,97.04
2023-02-19T00:14:31.971Z,96.92
2023-02-19T00:16:58.833Z,97.02
2023-02-19T00:19:31.809Z,97.19
2023-02-19T00:22:03.043Z,97.13
2023-02-19T00:24:32.884Z,97.31
2023-02-19T00:26:59.474Z,97.27
2023-02-19T00:29:26.140Z,97.17
2023-02-19T00:31:54.326Z,97.18
2023-02-19T00:34:30.239Z,97.31
2023-02-19T00:36:57.121Z,97.19
2023-02-19T00:39:29.870Z,97.50
2023-02-19T00:41:59.446Z,97.50
2023-02-19T00:44:28.246Z,97.21
2023-02-19T00:47:00.402Z,97.48
2023-02-19T00:49:30.033Z,97.11
2023-02-19T00:51:57.157Z,97.08
2023-02-19T00:54:31.968Z,97.36
2023-02-19T00:56:58.821Z,97.52
2023-02-19T00:59:25.441Z,97.58
2023-02-19T01:01:52.302Z,96.94
2023-02-19T01:04:21.944Z,97.58
2023-02-19T01:07:38.645Z,97.08
2023-02-19T01:10:07.273Z,97.71
2023-02-19T01:12:33.912Z,96.83
2023-02-19T01:15:00.461Z,97.12
2023-02-19T01:17:27.015Z,96.93
2023-02-19T01:19:56.396Z,96.98
2023-02-19T01:22:22.808Z,97.23
2023-02-19T01:24:50.664Z,97.05
2023-02-19T01:27:17.233Z,97.55
2023-02-19T01:29:45.439Z,97.00
2023-02-19T01:32:11.957Z,97.39
2023-02-19T01:34:38.648Z,96.98
2023-02-19T01:37:11.115Z,97.21
2023-02-19T01:39:41.719Z,96.62
2023-02-19T01:42:19.668Z,97.28
2023-02-19T01:44:46.061Z,97.48
2023-02-19T01:47:13.687Z,97.13
2023-02-19T01:49:50.122Z,97.16
2023-02-19T01:52:23.259Z,96.95
2023-02-19T01:54:50.469Z,97.50
2023-02-19T01:57:22.754Z,97.46
2023-02-19T01:59:54.828Z,96.70
2023-02-19T02:02:27.407Z,97.16
2023-02-19T02:05:18.107Z,96.98
2023-02-19T02:11:18.157Z,97.01
2023-02-19T02:13:45.553Z,96.76
2023-02-19T02:16:40.134Z,97.18
2023-02-19T02:19:34.234Z,97.11
2023-02-19T02:22:29.284Z,96.85
2023-02-19T02:25:08.177Z,96.60
2023-02-19T02:28:01.659Z,97.19
2023-02-19T02:30:39.655Z,96.85
2023-02-19T02:33:31.550Z,96.63
2023-02-19T02:36:24.649Z,97.17
2023-02-19T02:38:54.070Z,96.64
2023-02-19T02:41:22.435Z,97.06
2023-02-19T02:43:48.993Z,97.22
2023-02-19T02:46:22.801Z,96.45
2023-02-19T02:48:58.482Z,97.27
2023-02-19T02:51:34.500Z,96.73
2023-02-19T02:54:31.462Z,97.02
2023-02-19T02:57:00.935Z,96.99
2023-02-19T02:59:39.757Z,96.32
2023-02-19T03:02:15.018Z,96.94
2023-02-19T03:05:16.066Z,97.19
2023-02-19T03:08:04.099Z,96.95
2023-02-19T03:10:39.482Z,96.54
2023-02-19T03:13:29.243Z,97.27
2023-02-19T03:16:24.950Z,96.92
2023-02-19T03:19:13.506Z,96.65
2023-02-19T03:21:43.712Z,97.07
2023-02-19T03:24:31.413Z,96.93
2023-02-19T03:27:00.758Z,96.73
2023-02-19T03:29:35.530Z,97.01
2023-02-19T03:32:14.565Z,97.32
2023-02-19T03:34:51.600Z,96.44
2023-02-19T03:37:28.143Z,96.64
2023-02-19T03:39:58.581Z,96.53
2023-02-19T03:42:35.335Z,96.64
2023-02-19T03:45:26.637Z,97.35
2023-02-19T03:48:09.358Z,97.11
2023-02-19T03:50:58.906Z,96.62
2023-02-19T03:53:45.739Z,97.05
2023-02-19T03:56:34.166Z,96.71
2023-02-19T03:59:15.893Z,97.07
2023-02-19T04:02:03.519Z,97.32
2023-02-19T04:04:45.128Z,96.83
2023-02-19T04:07:14.421Z,96.52
2023-02-19T04:09:46.319Z,97.10
2023-02-19T04:12:19.044Z,97.44
2023-02-19T04:15:00.691Z,96.63
2023-02-19T04:17:34.097Z,96.86
2023-02-19T04:20:06.143Z,97.05
2023-02-19T04:22:36.457Z,96.74
2023-02-19T04:25:03.323Z,97.22
2023-02-19T04:27:29.789Z,97.08
2023-02-19T04:29:57.011Z,96.77
2023-02-19T04:32:23.625Z,96.73
2023-02-19T04:34:52.298Z,97.47
2023-02-19T04:37:20.439Z,97.09
2023-02-19T04:39:46.895Z,97.40
2023-02-19T04:42:15.212Z,97.34
2023-02-19T04:44:41.694Z,97.19
2023-02-19T04:47:08.169Z,97.34
2023-02-19T04:49:34.965Z,96.73
2023-02-19T04:52:01.596Z,96.94
2023-02-19T04:54:28.066Z,96.73
2023-02-19T04:56:54.514Z,97.14
2023-02-19T04:59:21.018Z,96.59
2023-02-19T05:01:47.639Z,97.13
2023-02-19T05:04:14.287Z,97.06
2023-02-19T05:06:40.764Z,96.66
2023-02-19T05:09:07.440Z,97.34
2023-02-19T05:11:33.999Z,97.00
2023-02-19T05:14:00.478Z,97.36
2023-02-19T05:16:27.011Z,97.34
2023-02-19T05:19:05.897Z,96.85
2023-02-19T05:21:57.568Z,96.56
2023-02-19T05:24:28.422Z,96.76
2023-02-19T05:26:55.107Z,96.90
2023-02-19T05:29:21.797Z,97.30
2023-02-19T05:31:49.310Z,96.37
2023-02-19T05:34:16.125Z,97.00
2023-02-19T05:36:45.779Z,96.73
2023-02-19T05:39:18.326Z,96.71
2023-02-19T05:41:46.840Z,96.97
2023-02-19T05:44:22.190Z,96.81
2023-02-19T05:46:48.787Z,96.50
2023-02-19T05:49:15.401Z,96.46
2023-02-19T05:51:42.192Z,96.96
2023-02-19T05:54:10.174Z,97.17
2023-02-19T05:56:47.742Z,96.51
2023-02-19T05:59:20.770Z,96.43
2023-02-19T06:01:52.608Z,96.78
2023-02-19T06:04:22.199Z,96.80
2023-02-19T06:06:49.102Z,96.74
2023-02-19T06:09:18.688Z,96.49
2023-02-19T06:11:45.473Z,96.48
2023-02-19T06:14:18.091Z,96.60
2023-02-19T06:16:50.594Z,96.63
2023-02-19T06:19:17.249Z,96.95
2023-02-19T06:21:44.030Z,96.52
2023-02-19T06:24:23.058Z,97.11
2023-02-19T06:26:52.759Z,96.62
2023-02-19T06:29:19.382Z,96.86
2023-02-19T06:31:46.029Z,96.55
2023-02-19T06:34:25.318Z,96.19
2023-02-19T06:36:52.557Z,97.15
2023-02-19T06:39:19.183Z,96.85
2023-02-19T06:41:45.671Z,96.83
2023-02-19T06:44:12.521Z,96.88
2023-02-19T06:46:39.306Z,97.22
2023-02-19T06:49:08.108Z,96.61
2023-02-19T06:51:34.677Z,96.78
2023-02-19T06:54:02.372Z,96.62
2023-02-19T06:56:39.662Z,97.44
2023-02-19T06:59:10.298Z,97.01
2023-02-19T07:01:37.623Z,97.27
2023-02-19T07:04:05.104Z,97.21
2023-02-19T07:06:33.431Z,97.52
2023-02-19T07:09:01.394Z,97.34
2023-02-19T07:11:31.632Z,97.35
2023-02-19T07:14:00.190Z,97.65
2023-02-19T07:16:27.359Z,97.00
2023-02-19T07:18:56.982Z,96.67
2023-02-19T07:21:23.802Z,97.36
2023-02-19T07:23:50.306Z,96.91
2023-02-19T07:26:18.204Z,97.05
2023-02-19T07:28:46.669Z,97.51
2023-02-19T07:31:14.795Z,97.72
2023-02-19T07:33:44.731Z,97.52
2023-02-19T07:36:15.147Z,97.63
2023-02-19T07:38:41.686Z,97.25
2023-02-19T07:41:08.796Z,97.10
2023-02-19T07:43:37.951Z,98.09
2023-02-19T07:46:13.123Z,97.42
2023-02-19T07:48:44.899Z,96.94
2023-02-19T07:51:16.423Z,97.25
2023-02-19T07:53:42.941Z,97.57
2023-02-19T07:56:11.640Z,97.22
2023-02-19T07:58:38.793Z,96.80
2023-02-19T08:01:15.158Z,97.18
2023-02-19T08:03:42.249Z,96.59
2023-02-19T08:06:13.473Z,96.75
2023-02-19T08:08:40.249Z,97.15
2023-02-19T08:11:25.925Z,96.22
2023-02-19T08:13:53.159Z,96.27
2023-02-19T08:16:36.793Z,96.76
2023-02-19T08:21:51.174Z,96.20
2023-02-19T08:24:18.980Z,96.51
2023-02-19T08:26:45.419Z,96.41
2023-02-19T08:29:11.972Z,96.42
2023-02-19T08:31:38.920Z,97.01
2023-02-19T08:34:06.043Z,96.69
2023-02-19T08:36:33.103Z,96.53
2023-02-19T08:38:59.785Z,97.42
2023-02-19T08:41:26.520Z,96.80
2023-02-19T08:43:53.018Z,97.14
2023-02-19T08:46:19.559Z,96.83
2023-02-19T08:48:46.181Z,97.34
2023-02-19T08:51:13.109Z,96.66
2023-02-19T08:53:40.720Z,96.44
2023-02-19T08:56:12.941Z,96.39
2023-02-19T08:58:40.505Z,96.77
2023-02-19T09:01:10.964Z,96.05
2023-02-19T09:03:37.786Z,96.49
2023-02-19T09:06:04.988Z,96.09
2023-02-19T09:08:33.397Z,96.57
2023-02-19T09:11:07.012Z,96.52
2023-02-19T09:13:53.010Z,96.19
2023-02-19T09:16:27.435Z,95.39
2023-02-19T09:18:54.069Z,95.79
2023-02-19T09:22:21.854Z,95.03
2023-02-19T09:24:56.231Z,94.96
2023-02-19T09:27:25.383Z,94.93
2023-02-19T09:29:51.990Z,95.15
2023-02-19T09:32:19.339Z,95.47
2023-02-19T09:35:11.437Z,94.75
2023-02-19T09:40:22.447Z,94.67
2023-02-19T09:42:51.238Z,94.95
2023-02-19T09:45:39.483Z,94.70
2023-02-19T09:48:22.433Z,94.91
2023-02-19T09:50:53.553Z,94.99
2023-02-19T09:56:29.909Z,95.00
2023-02-19T09:59:23.761Z,94.99
2023-02-19T10:03:19.711Z,95.19
2023-02-19T10:05:53.987Z,95.41
2023-02-19T10:11:48.992Z,95.23
2023-02-19T10:14:22.830Z,95.02
2023-02-19T10:16:50.300Z,95.28
2023-02-19T10:19:19.928Z,95.34
2023-02-19T10:21:56.850Z,95.26
2023-02-19T10:24:41.963Z,94.64
2023-02-19T10:27:34.494Z,95.24
2023-02-19T10:30:01.774Z,95.46
2023-02-19T10:32:29.501Z,95.11
2023-02-19T10:35:31.115Z,95.05
2023-02-19T10:38:01.332Z,94.65
2023-02-19T10:40:29.038Z,94.92
2023-02-19T10:43:02.169Z,94.57
2023-02-19T10:45:47.918Z,94.52
2023-02-19T10:48:36.953Z,94.54
2023-02-19T10:51:06.060Z,94.41
2023-02-19T10:53:42.358Z,94.63
2023-02-19T10:56:13.000Z,95.11
2023-02-19T11:01:27.982Z,94.30
2023-02-19T11:04:20.602Z,94.84
2023-02-19T11:07:32.597Z,94.90
2023-02-19T11:10:03.155Z,94.41
2023-02-19T11:12:33.420Z,94.09
2023-02-19T11:15:24.611Z,93.97
2023-02-19T11:18:26.409Z,93.91
2023-02-19T11:21:04.656Z,94.22
2023-02-19T11:23:40.293Z,94.35
2023-02-19T11:26:20.618Z,94.16
2023-02-19T11:28:57.914Z,93.61
2023-02-19T11:31:32.457Z,93.51
2023-02-19T11:34:24.870Z,93.64
2023-02-19T11:37:14.898Z,93.67
2023-02-19T11:39:47.513Z,93.59
2023-02-19T11:42:29.197Z,92.69
2023-02-19T11:45:36.503Z,92.78
2023-02-19T11:48:57.514Z,93.74
2023-02-19T11:51:59.009Z,92.97
2023-02-19T11:54:54.533Z,93.07
2023-02-19T11:57:37.997Z,93.43
2023-02-19T12:00:31.678Z,92.91
2023-02-19T12:03:31.457Z,92.93
2023-02-19T12:06:25.994Z,93.42
2023-02-19T12:08:55.628Z,93.26
2023-02-19T12:11:35.212Z,91.64
2023-02-19T12:14:27.634Z,92.58
2023-02-19T12:17:14.337Z,91.52
2023-02-19T12:20:14.244Z,91.95
2023-02-19T12:22:46.479Z,91.81
2023-02-19T12:25:32.232Z,91.81
2023-02-19T12:28:06.050Z,91.63
2023-02-19T12:31:23.665Z,90.70
2023-02-19T12:34:15.457Z,92.05
2023-02-19T12:36:56.284Z,92.16
2023-02-19T12:39:43.002Z,91.89
2023-02-19T12:42:31.683Z,91.81
2023-02-19T12:45:06.576Z,92.31
2023-02-19T12:47:39.303Z,91.77
2023-02-19T12:50:27.374Z,91.52
2023-02-19T12:53:35.149Z,91.92
2023-02-19T12:56:05.306Z,92.10
2023-02-19T12:58:45.320Z,91.79
2023-02-19T13:01:21.048Z,91.66
2023-02-19T13:04:02.653Z,91.60
2023-02-19T13:06:45.224Z,91.45
2023-02-19T13:09:29.450Z,91.67
2023-02-19T13:12:04.650Z,90.55
2023-02-19T13:14:37.426Z,90.69
2023-02-19T13:17:27.680Z,90.65
2023-02-19T13:20:02.639Z,91.55
2023-02-19T13:23:16.988Z,91.27
2023-02-19T13:26:05.511Z,91.82
2023-02-19T13:29:12.491Z,91.44
2023-02-19T13:31:57.978Z,92.55
2023-02-19T13:34:50.006Z,91.29
2023-02-19T13:37:17.662Z,91.48
2023-02-19T13:39:50.845Z,91.30
2023-02-19T13:42:36.659Z,91.05
2023-02-19T13:45:06.314Z,90.54
2023-02-19T13:47:48.196Z,90.97
2023-02-19T13:50:25.071Z,91.51
2023-02-19T13:52:53.913Z,91.40
2023-02-19T13:55:53.853Z,91.61
2023-02-19T13:58:32.797Z,91.73
2023-02-19T14:01:01.346Z,91.01
2023-02-19T14:03:52.004Z,90.02
2023-02-19T14:06:18.970Z,90.65
2023-02-19T14:08:53.216Z,90.57
2023-02-19T14:11:42.589Z,89.92
2023-02-19T14:14:41.260Z,90.40
2023-02-19T14:17:12.526Z,89.91
2023-02-19T14:19:41.724Z,89.85
2023-02-19T14:22:47.190Z,89.45
2023-02-19T14:25:31.214Z,89.65
2023-02-19T14:28:06.668Z,89.40
2023-02-19T14:30:40.490Z,89.78
2023-02-19T14:33:11.444Z,89.68
2023-02-19T14:35:45.041Z,88.45
2023-02-19T14:38:25.289Z,87.74
2023-02-19T14:40:54.070Z,88.53
2023-02-19T14:43:24.763Z,87.65
2023-02-19T14:45:57.477Z,87.19
2023-02-19T14:48:30.445Z,86.95
2023-02-19T14:51:25.209Z,86.92
2023-02-19T14:53:53.856Z,87.02
2023-02-19T14:56:27.979Z,86.71
2023-02-19T14:59:28.648Z,87.03
2023-02-19T15:01:57.404Z,86.12
2023-02-19T15:04:27.679Z,86.25
2023-02-19T15:06:57.070Z,87.04
2023-02-19T15:09:31.047Z,86.24
2023-02-19T15:11:58.332Z,86.08
2023-02-19T15:14:28.544Z,85.81
2023-02-19T15:17:00.057Z,85.16
2023-02-19T15:19:26.921Z,84.90
2023-02-19T15:21:55.097Z,85.59
2023-02-19T15:24:22.009Z,85.89
2023-02-19T15:26:51.658Z,86.61
2023-02-19T15:29:23.524Z,86.08
2023-02-19T15:31:53.370Z,86.39
2023-02-19T15:34:23.506Z,87.00
2023-02-19T15:36:53.012Z,87.27
2023-02-19T15:39:31.859Z,87.90
2023-02-19T15:42:02.130Z,87.92
2023-02-19T15:45:03.919Z,87.92
2023-02-19T15:47:51.785Z,87.67
2023-02-19T15:50:26.912Z,88.21
2023-02-19T15:52:59.379Z,87.55
2023-02-19T15:56:01.302Z,87.11
2023-02-19T15:58:56.968Z,87.49
2023-02-19T16:01:25.286Z,88.12
2023-02-19T16:03:54.215Z,88.55
2023-02-19T16:06:24.308Z,87.39
2023-02-19T16:09:19.320Z,87.55
2023-02-19T16:11:58.330Z,88.08
2023-02-19T16:14:40.846Z,88.41
2023-02-19T16:17:10.058Z,88.10
2023-02-19T16:19:53.348Z,88.76
2023-02-19T16:22:23.410Z,88.41
2023-02-19T16:24:56.072Z,88.11
2023-02-19T16:27:34.485Z,88.89
2023-02-19T16:30:09.663Z,88.95
2023-02-19T16:35:41.094Z,89.43
2023-02-19T16:38:14.128Z,88.69
2023-02-19T16:41:10.812Z,89.01
2023-02-19T16:44:27.911Z,88.77
2023-02-19T16:47:29.699Z,89.67
2023-02-19T16:50:01.169Z,88.70
2023-02-19T16:52:28.380Z,88.97
2023-02-19T16:54:54.943Z,88.69
2023-02-19T16:57:21.644Z,88.94
2023-02-19T16:59:48.146Z,88.75
2023-02-19T17:02:22.334Z,89.22
2023-02-19T17:04:50.681Z,88.66
2023-02-19T17:07:18.150Z,88.48
2023-02-19T17:09:46.754Z,88.69
2023-02-19T17:12:16.006Z,88.54
2023-02-19T17:14:42.706Z,88.72
2023-02-19T17:17:09.217Z,88.86
2023-02-19T17:19:35.837Z,88.76
2023-02-19T17:22:02.425Z,88.91
2023-02-19T17:24:28.930Z,88.72
2023-02-19T17:26:55.441Z,89.24
2023-02-19T17:29:22.208Z,88.54
2023-02-19T17:31:49.074Z,88.86
2023-02-19T17:34:15.846Z,88.14
2023-02-19T17:36:45.249Z,87.71
2023-02-19T17:39:17.790Z,88.33
2023-02-19T17:41:45.519Z,88.20
2023-02-19T17:44:12.044Z,87.45
2023-02-19T17:46:39.542Z,87.52
2023-02-19T17:49:07.467Z,88.38
2023-02-19T17:51:34.764Z,87.55
2023-02-19T17:54:01.556Z,87.67
2023-02-19T17:56:28.317Z,87.64
2023-02-19T17:58:59.295Z,87.49
2023-02-19T18:01:33.688Z,87.22
2023-02-19T18:04:00.326Z,87.41
2023-02-19T18:06:28.200Z,87.64
2023-02-19T18:08:54.849Z,88.28
2023-02-19T18:11:30.455Z,87.87
2023-02-19T18:13:57.510Z,87.78
2023-02-19T18:16:27.156Z,86.91
2023-02-19T18:22:54.269Z,87.49
2023-02-19T18:25:28.018Z,86.99
2023-02-19T18:27:59.544Z,86.68
2023-02-19T18:30:29.548Z,86.81
2023-02-19T18:32:56.323Z,86.88
2023-02-19T18:35:23.105Z,86.33
2023-02-19T18:38:15.277Z,86.56
2023-02-19T18:40:51.523Z,86.12
2023-02-19T18:43:18.036Z,86.87
2023-02-19T18:45:46.483Z,86.92
2023-02-19T18:48:13.884Z,86.48
2023-02-19T18:50:40.535Z,86.46
2023-02-19T18:53:07.251Z,86.72
2023-02-19T18:55:33.872Z,86.76
2023-02-19T18:58:00.349Z,86.75
2023-02-19T19:00:28.055Z,86.79
2023-02-19T19:02:56.817Z,87.64
2023-02-19T19:05:23.959Z,87.28
2023-02-19T19:07:52.524Z,87.27
2023-02-19T19:10:19.783Z,88.11
2023-02-19T19:12:46.386Z,88.29
2023-02-19T19:15:12.862Z,87.96
2023-02-19T19:17:40.422Z,88.44
2023-02-19T19:20:07.761Z,88.10
2023-02-19T19:22:34.376Z,88.57
2023-02-19T19:25:00.946Z,88.11
2023-02-19T19:27:28.639Z,88.56
2023-02-19T19:29:56.375Z,88.63
2023-02-19T19:32:23.059Z,88.53
2023-02-19T19:34:50.793Z,89.17
2023-02-19T19:37:17.439Z,89.36
2023-02-19T19:39:43.884Z,89.49
2023-02-19T19:42:10.964Z,89.29
2023-02-19T19:44:37.854Z,90.02
2023-02-19T19:47:04.763Z,89.80
2023-02-19T19:49:35.366Z,89.83
2023-02-19T19:52:01.955Z,89.91
2023-02-19T19:54:28.687Z,90.10
2023-02-19T19:56:55.194Z,90.25
2023-02-19T19:59:23.034Z,90.22
2023-02-19T20:01:57.818Z,90.19
2023-02-19T20:04:25.888Z,90.71
2023-02-19T20:06:54.436Z,90.55
2023-02-19T20:09:25.462Z,90.57
2023-02-19T20:11:53.839Z,90.44
2023-02-19T20:14:22.852Z,90.87
2023-02-19T20:16:50.469Z,90.93
2023-02-19T20:19:19.391Z,90.90
2023-02-19T20:22:00.353Z,90.83
2023-02-19T20:24:31.023Z,91.23
2023-02-19T20:27:00.017Z,90.88
2023-02-19T20:29:31.830Z,91.12
2023-02-19T20:32:00.021Z,90.96
2023-02-19T20:34:27.140Z,91.26
2023-02-19T20:36:54.202Z,91.56
2023-02-19T20:39:22.118Z,91.73
2023-02-19T20:41:51.291Z,91.48
2023-02-19T20:44:19.521Z,91.45
2023-02-19T20:46:51.735Z,91.28
2023-02-19T20:49:29.173Z,91.14
2023-02-19T20:51:58.416Z,91.63
2023-02-19T20:54:28.287Z,91.46
2023-02-19T20:56:57.546Z,91.52
2023-02-19T20:59:32.761Z,91.75
2023-02-19T21:01:59.614Z,91.85
2023-02-19T21:04:27.087Z,91.50
2023-02-19T21:06:53.657Z,91.92
2023-02-19T21:09:24.089Z,92.09
2023-02-19T21:11:52.946Z,91.47
2023-02-19T21:14:19.694Z,91.85
2023-02-19T21:16:46.220Z,92.08
2023-02-19T21:19:12.789Z,92.24
2023-02-19T21:21:40.305Z,92.03
2023-02-19T21:24:12.293Z,92.45
2023-02-19T21:26:40.854Z,92.35
2023-02-19T21:29:11.026Z,92.57
2023-02-19T21:35:25.842Z,93.02
2023-02-19T21:37:59.541Z,92.85
2023-02-19T21:40:32.036Z,93.22
2023-02-19T21:42:58.716Z,92.67
2023-02-19T21:45:25.553Z,92.76
2023-02-19T21:47:58.084Z,93.24
2023-02-19T21:50:28.604Z,93.20
2023-02-19T21:55:38.515Z,92.94
2023-02-19T21:58:05.241Z,93.48
2023-02-19T22:00:35.993Z,93.40
2023-02-19T22:03:02.764Z,93.90
2023-02-19T22:05:29.424Z,93.49
2023-02-19T22:08:05.730Z,93.92
2023-02-19T22:10:32.514Z,93.55
2023-02-19T22:13:24.860Z,93.89
2023-02-19T22:15:49.462Z,93.90
2023-02-19T22:18:16.074Z,93.66
2023-02-19T22:21:11.373Z,93.83
2023-02-19T22:23:37.914Z,93.62
2023-02-19T22:26:31.982Z,93.92
2023-02-19T22:29:26.566Z,93.90
2023-02-19T22:32:18.125Z,93.98
2023-02-19T22:34:44.742Z,94.39
2023-02-19T22:37:11.430Z,94.44
2023-02-19T22:39:38.170Z,93.93
2023-02-19T22:42:29.213Z,93.63
2023-02-19T22:45:12.166Z,93.64
2023-02-19T22:47:57.751Z,93.93
2023-02-19T22:50:30.624Z,94.10
2023-02-19T22:53:22.370Z,94.21
2023-02-19T22:55:48.953Z,94.37
2023-02-19T22:58:22.625Z,94.15
2023-02-19T23:00:49.302Z,94.44
2023-02-19T23:03:16.040Z,94.01
2023-02-19T23:05:42.692Z,94.03
2023-02-19T23:08:32.776Z,93.99
2023-02-19T23:11:25.586Z,94.10
2023-02-19T23:14:21.124Z,94.23
2023-02-19T23:16:49.480Z,94.08
2023-02-19T23:19:41.434Z,94.55
2023-02-19T23:22:11.641Z,93.88
2023-02-19T23:24:40.824Z,94.26
2023-02-19T23:27:07.456Z,93.92
2023-02-19T23:29:59.118Z,94.11
2023-02-19T23:32:30.497Z,94.03
2023-02-19T23:35:00.170Z,94.00
2023-02-19T23:39:01.905Z,94.27
2023-02-19T23:40:49.626Z,94.63
2023-02-19T23:43:43.621Z,94.14
2023-02-19T23:46:15.281Z,93.79
2023-02-19T23:48:42.007Z,93.85
2023-02-19T23:51:08.680Z,93.85
2023-02-19T23:53:36.891Z,94.12
2023-02-19T23:56:03.817Z,93.79
2023-02-19T23:58:30.833Z,93.85
